KDQH

Douglas Municipal Airport

Douglas, Georgia, USA
METAR KDQH 201555Z AUTO 26005KT 10SM CLR 29/23 A3014 RMK AO2
Observed Flight Rules
Aug-20 @ 15:55 UTC (30 minutes ago) Visual Flight Rules
Wind Visibility Clouds
260° at 5 knots 10 miles
  • Clear skies
Temperatures Readings
Current 29°C / 84°F
Dewpoint 23°C / 73°F
Humidity 70%
Altimeter 30.14" Hg
Pressure 1021 hPa
Elevation 78
METAR KDQH 201555Z AUTO 26005KT 10SM CLR 29/23 A3014 RMK AO2
Observed Flight Rules
Aug-20 @ 15:55 UTC
(30 minutes ago)
VFR
Wind Visibility
260° at 5 knots 10 miles
Clouds
  • Clear skies
Temperature Dewpoint
29°C / 84°F 23°C / 73°F
Humidity Altimeter Pressure
70% 30.14" Hg 1021 hPa